Time;durP1;ratioP1;P1;durP2;ratioP2;P2;SDS_P1;SDS_P2;PMS_P1;PMS_P2;Temp;Humidity;BMP_temperature;BMP_pressure;BME280_temperature;BME280_humidity;BME280_pressure;Samples;Min_cycle;Max_cycle;Signal;HPM_P1;HPM_P2
2022/05/01 00:00:55;;;;;;;13.15;9.00;;;;;;;8.49;76.85;102398.78;5066684;28;20048;-68
2022/05/01 00:03:36;;;;;;;14.55;9.57;;;;;;;8.46;76.67;102398.91;5067394;28;20048;-75
2022/05/01 00:06:07;;;;;;;12.75;9.35;;;;;;;8.47;76.36;102391.66;5059930;28;20056;-67
2022/05/01 00:08:36;;;;;;;13.00;8.43;;;;;;;8.51;75.06;102393.31;5071984;28;20028;-74
2022/05/01 00:11:02;;;;;;;13.48;9.65;;;;;;;8.55;74.96;102392.25;5067591;28;20078;-76
2022/05/01 00:13:29;;;;;;;20.25;9.70;;;;;;;8.56;75.49;102394.88;5067547;28;20040;-67
2022/05/01 00:15:55;;;;;;;15.45;9.10;;;;;;;8.54;76.62;102388.66;5067703;28;20071;-66
2022/05/01 00:18:20;;;;;;;14.90;9.60;;;;;;;8.54;76.21;102388.66;5069199;28;20028;-68
2022/05/01 00:20:47;;;;;;;12.00;8.77;;;;;;;8.52;76.05;102397.78;5052075;28;20064;-74
2022/05/01 00:23:13;;;;;;;11.70;8.82;;;;;;;8.50;75.88;102395.13;5070388;28;20020;-67
2022/05/01 00:25:41;;;;;;;13.32;9.15;;;;;;;8.50;75.35;102392.41;5060289;28;20491;-73
2022/05/01 00:28:10;;;;;;;13.00;8.93;;;;;;;8.53;75.43;102391.41;5070782;28;20566;-68
2022/05/01 00:30:36;;;;;;;12.80;8.82;;;;;;;8.52;76.43;102390.50;5051522;28;20066;-71
2022/05/01 00:38:30;;;;;;;13.80;8.57;;;;;;;8.47;77.04;102392.53;5070331;28;20467;-73
2022/05/01 00:40:56;;;;;;;14.25;8.45;;;;;;;8.41;77.66;102384.63;5070845;28;20067;-75
2022/05/01 00:43:22;;;;;;;18.48;9.82;;;;;;;8.37;77.47;102386.56;5066713;28;20063;-68
2022/05/01 00:45:47;;;;;;;13.93;8.73;;;;;;;8.33;77.14;102378.59;5068084;28;20029;-73
2022/05/01 00:48:13;;;;;;;16.38;8.57;;;;;;;8.35;76.71;102380.31;5068353;28;20033;-73
2022/05/01 00:50:38;;;;;;;12.75;9.18;;;;;;;8.36;77.13;102383.91;5056572;28;20099;-68
2022/05/01 00:53:05;;;;;;;14.57;9.10;;;;;;;8.38;76.49;102384.75;5069655;28;20047;-76
2022/05/01 00:55:35;;;;;;;13.75;8.82;;;;;;;8.42;75.98;102378.25;5068795;28;20028;-74
2022/05/01 00:58:03;;;;;;;13.07;8.93;;;;;;;8.43;75.85;102378.19;5071023;28;20028;-68
2022/05/01 01:00:29;;;;;;;14.55;9.10;;;;;;;8.46;76.22;102379.91;5084964;28;20039;-73
2022/05/01 01:02:54;;;;;;;14.52;9.23;;;;;;;8.43;76.21;102378.19;5061500;28;20036;-75
2022/05/01 01:05:20;;;;;;;13.60;9.18;;;;;;;8.41;75.61;102373.78;5056862;28;20401;-73
2022/05/01 01:07:45;;;;;;;13.18;9.32;;;;;;;8.40;76.22;102375.63;5068984;28;20028;-75
2022/05/01 01:10:11;;;;;;;13.75;8.68;;;;;;;8.37;78.19;102372.13;5069120;28;20036;-74
2022/05/01 01:12:55;;;;;;;13.65;9.50;;;;;;;8.31;76.85;102364.22;5065902;28;20473;-75
2022/05/01 01:15:30;;;;;;;17.20;9.15;;;;;;;8.26;77.26;102368.94;5070297;28;20052;-75
2022/05/01 01:17:56;;;;;;;15.45;9.68;;;;;;;8.23;77.43;102380.75;5067479;28;20234;-74
2022/05/01 01:20:23;;;;;;;12.48;8.65;;;;;;;8.17;77.44;102370.16;5058841;28;20568;-66
2022/05/01 01:22:50;;;;;;;16.10;9.60;;;;;;;8.18;77.46;102374.63;5060980;28;20035;-67
2022/05/01 01:25:19;;;;;;;14.40;9.10;;;;;;;8.16;77.94;102368.41;5070172;28;20021;-67
2022/05/01 01:27:45;;;;;;;14.25;8.75;;;;;;;8.12;77.40;102372.16;5065475;28;20036;-67
2022/05/01 01:32:55;;;;;;;15.70;8.68;;;;;;;8.12;77.69;102367.63;5051242;28;20056;-75
2022/05/01 01:35:23;;;;;;;17.30;9.55;;;;;;;8.08;77.56;102365.97;5057995;28;20037;-74
2022/05/01 01:37:53;;;;;;;16.05;9.77;;;;;;;8.08;76.76;102368.69;5068613;28;20484;-67
2022/05/01 01:40:22;;;;;;;14.52;9.30;;;;;;;8.06;77.27;102362.41;5050048;28;20127;-68
2022/05/01 01:42:50;;;;;;;14.23;9.45;;;;;;;8.09;76.50;102372.28;5068567;28;20093;-73
2022/05/01 01:45:16;;;;;;;13.02;9.07;;;;;;;8.10;76.46;102366.78;5070116;28;20029;-75
2022/05/01 01:47:42;;;;;;;15.77;9.82;;;;;;;8.07;76.25;102360.63;5056428;28;20032;-73
2022/05/01 01:50:09;;;;;;;13.80;8.80;;;;;;;8.07;76.13;102360.63;5057702;28;20037;-74
2022/05/01 01:52:35;;;;;;;14.32;8.70;;;;;;;8.05;76.64;102360.66;5078184;28;20102;-67
2022/05/01 01:55:00;;;;;;;12.40;9.00;;;;;;;8.04;76.73;102363.44;5068614;28;20029;-67
2022/05/01 01:57:26;;;;;;;14.93;8.85;;;;;;;7.97;77.83;102364.59;5067669;28;20036;-75
2022/05/01 01:59:51;;;;;;;14.40;9.05;;;;;;;7.92;77.55;102367.47;5059483;28;20024;-67
2022/05/01 02:02:17;;;;;;;13.02;8.15;;;;;;;7.89;76.36;102360.34;5064214;28;20040;-75
2022/05/01 02:04:42;;;;;;;18.77;10.20;;;;;;;7.86;77.13;102359.56;5058989;28;20108;-72
2022/05/01 02:07:07;;;;;;;16.60;9.73;;;;;;;7.83;77.20;102360.59;5068759;28;20067;-73
2022/05/01 02:09:37;;;;;;;17.83;9.73;;;;;;;7.84;77.22;102367.78;5067131;28;20040;-74
2022/05/01 02:12:08;;;;;;;12.88;9.05;;;;;;;7.82;77.10;102366.91;5069394;28;20052;-68
2022/05/01 02:14:35;;;;;;;15.68;8.85;;;;;;;7.78;77.00;102353.53;5057810;28;20053;-68
2022/05/01 02:17:02;;;;;;;14.65;10.13;;;;;;;7.76;77.93;102356.31;5059341;28;20029;-67
2022/05/01 02:19:31;;;;;;;14.85;8.55;;;;;;;7.75;77.44;102357.25;5064571;28;20025;-74
2022/05/01 02:21:57;;;;;;;13.07;9.57;;;;;;;7.74;77.41;102362.72;5061220;28;20033;-73
2022/05/01 02:24:25;;;;;;;17.73;9.85;;;;;;;7.74;77.25;102351.88;5067004;28;20495;-73
2022/05/01 02:26:51;;;;;;;14.90;9.25;;;;;;;7.73;77.17;102352.81;5068290;28;20119;-75
2022/05/01 02:29:17;;;;;;;17.98;10.05;;;;;;;7.69;77.58;102352.06;5062148;28;20089;-73
2022/05/01 02:31:44;;;;;;;15.32;9.90;;;;;;;7.68;78.70;102353.88;5063392;28;20549;-67
2022/05/01 02:34:11;;;;;;;14.55;9.43;;;;;;;7.63;78.68;102349.56;5062235;28;20033;-67
2022/05/01 02:36:37;;;;;;;15.57;9.80;;;;;;;7.61;78.09;102344.22;5057739;28;20044;-69
2022/05/01 02:39:04;;;;;;;15.30;9.90;;;;;;;7.59;78.48;102335.25;5068142;28;20036;-74
2022/05/01 02:41:30;;;;;;;21.50;10.48;;;;;;;7.59;78.63;102337.06;5063876;28;20120;-67
2022/05/01 02:43:56;;;;;;;17.63;9.85;;;;;;;7.55;78.33;102333.59;5066976;28;20064;-72
2022/05/01 02:46:22;;;;;;;15.98;9.45;;;;;;;7.54;78.21;102331.81;5062223;28;20412;-67
2022/05/01 02:48:47;;;;;;;13.82;9.80;;;;;;;7.54;78.14;102328.22;5057978;28;20033;-68
2022/05/01 02:51:13;;;;;;;17.33;10.45;;;;;;;7.56;77.31;102339.91;5050966;28;20037;-74
2022/05/01 02:53:38;;;;;;;16.17;10.27;;;;;;;7.54;78.11;102333.66;5072820;28;20027;-67
2022/05/01 02:56:04;;;;;;;15.50;10.65;;;;;;;7.53;77.81;102334.59;5078333;28;20111;-68
2022/05/01 02:58:30;;;;;;;17.90;11.23;;;;;;;7.50;78.61;102335.56;5073199;28;20142;-67
2022/05/01 03:00:56;;;;;;;15.70;10.27;;;;;;;7.49;77.83;102330.22;5070735;28;20557;-74
2022/05/01 03:03:23;;;;;;;17.80;11.30;;;;;;;7.45;78.83;102329.44;5059206;28;20127;-67
2022/05/01 03:05:51;;;;;;;14.30;9.68;;;;;;;7.41;79.08;102331.41;5063381;28;20111;-67
2022/05/01 03:08:17;;;;;;;14.50;9.20;;;;;;;7.39;78.67;102325.13;5071862;28;20040;-74
2022/05/01 03:10:43;;;;;;;17.30;10.75;;;;;;;7.37;79.43;102332.44;5056333;28;20043;-67
2022/05/01 03:13:08;;;;;;;14.45;9.88;;;;;;;7.35;79.22;102328.88;5054270;28;20131;-68
2022/05/01 03:15:33;;;;;;;18.58;10.80;;;;;;;7.35;79.52;102330.72;5072522;28;20484;-73
2022/05/01 03:23:26;;;;;;;18.85;9.35;;;;;;;7.33;79.23;102322.66;5071184;28;20051;-74
2022/05/01 03:25:52;;;;;;;16.88;10.05;;;;;;;7.29;79.00;102326.41;5052867;28;20017;-67
2022/05/01 03:28:17;;;;;;;20.02;12.15;;;;;;;7.27;78.95;102320.16;5071218;28;20052;-75
2022/05/01 03:30:42;;;;;;;19.02;10.45;;;;;;;7.24;79.57;102320.28;5054271;28;20036;-70
2022/05/01 03:33:08;;;;;;;17.20;9.93;;;;;;;7.20;79.41;102318.59;5066523;28;20037;-74
2022/05/01 03:35:37;;;;;;;14.52;9.82;;;;;;;7.20;79.37;102313.19;5062380;28;20049;-66
2022/05/01 03:38:04;;;;;;;18.85;10.50;;;;;;;7.17;79.73;102313.28;5072313;28;20051;-73
2022/05/01 03:40:29;;;;;;;15.80;10.38;;;;;;;7.16;79.36;102316.94;5072067;28;20025;-74
2022/05/01 03:42:55;;;;;;;14.07;9.13;;;;;;;7.10;79.61;102312.63;5070063;28;20032;-75
2022/05/01 03:45:20;;;;;;;15.13;9.75;;;;;;;7.06;79.74;102312.78;5071064;28;20028;-73
2022/05/01 03:47:46;;;;;;;20.02;11.18;;;;;;;7.01;79.50;102310.25;5069064;28;20040;-74
2022/05/01 03:50:11;;;;;;;15.13;9.50;;;;;;;6.95;79.12;102307.75;5065455;28;20050;-73
2022/05/01 03:52:37;;;;;;;20.13;10.95;;;;;;;6.95;79.46;102312.25;5071237;28;20036;-73
2022/05/01 03:55:03;;;;;;;17.95;10.98;;;;;;;6.92;79.89;102310.56;5070567;28;20475;-67
2022/05/01 03:57:29;;;;;;;15.45;10.73;;;;;;;6.85;79.62;102306.25;5061815;28;20044;-73
2022/05/01 03:59:54;;;;;;;18.42;11.00;;;;;;;6.82;79.89;102315.38;5069926;28;20041;-68
2022/05/01 04:02:20;;;;;;;18.20;11.15;;;;;;;6.81;80.29;102313.63;5068892;28;20467;-68
2022/05/01 04:04:45;;;;;;;18.60;11.07;;;;;;;6.74;80.30;102317.44;5060826;28;20025;-67
2022/05/01 04:07:11;;;;;;;17.13;10.23;;;;;;;6.69;79.42;102305.91;5070803;28;20107;-73
2022/05/01 04:09:37;;;;;;;20.40;11.00;;;;;;;6.64;80.61;102315.97;5068347;28;20028;-75
2022/05/01 04:12:04;;;;;;;18.33;11.10;;;;;;;6.59;79.68;102317.97;5069549;28;20075;-68
2022/05/01 04:14:30;;;;;;;18.98;10.85;;;;;;;6.56;79.77;102323.44;5068398;28;20059;-71
2022/05/01 04:16:58;;;;;;;23.48;12.32;;;;;;;6.55;80.38;102319.88;5050836;28;20400;-75
2022/05/01 04:19:24;;;;;;;16.30;10.77;;;;;;;6.52;79.47;102324.47;5059769;28;20045;-68
2022/05/01 04:21:49;;;;;;;26.90;11.63;;;;;;;6.40;80.37;102301.44;5057288;28;20037;-75
2022/05/01 04:24:15;;;;;;;18.70;11.40;;;;;;;6.41;80.39;102314.00;5041654;28;20391;-68
2022/05/01 04:26:40;;;;;;;16.38;10.88;;;;;;;6.36;80.30;102318.69;5071123;28;20086;-75
2022/05/01 04:31:49;;;;;;;17.33;10.55;;;;;;;6.32;80.12;102315.19;5066750;28;20036;-68
2022/05/01 04:34:15;;;;;;;17.65;10.63;;;;;;;6.29;80.39;102315.25;5065717;28;20087;-73
2022/05/01 04:36:41;;;;;;;18.48;11.23;;;;;;;6.26;80.70;102315.38;5069075;28;20040;-75
2022/05/01 04:39:06;;;;;;;17.27;11.13;;;;;;;6.23;80.45;102317.28;5069846;28;20041;-67
2022/05/01 04:41:32;;;;;;;19.50;11.15;;;;;;;6.20;80.79;102312.88;5065944;28;20111;-67
2022/05/01 04:43:57;;;;;;;20.88;11.70;;;;;;;6.21;79.93;102317.34;5068198;28;20079;-68
2022/05/01 04:46:22;;;;;;;21.23;12.35;;;;;;;6.19;80.45;102316.50;5060347;28;20385;-68
2022/05/01 04:48:48;;;;;;;19.67;11.82;;;;;;;6.25;80.14;102312.72;5065187;28;20033;-68
2022/05/01 04:51:13;;;;;;;21.42;11.70;;;;;;;6.31;80.12;102318.81;5061913;28;20037;-68
2022/05/01 04:53:38;;;;;;;15.40;10.43;;;;;;;6.31;80.03;102316.13;5052940;28;20127;-68
2022/05/01 04:58:48;;;;;;;17.85;11.95;;;;;;;6.40;80.67;102320.38;5059378;28;20098;-67
2022/05/01 05:01:15;;;;;;;20.52;12.10;;;;;;;6.41;80.68;102327.53;5067149;28;20041;-67
2022/05/01 05:03:40;;;;;;;20.75;12.80;;;;;;;6.43;80.68;102325.66;5066225;28;20472;-74
2022/05/01 05:06:06;;;;;;;20.13;12.25;;;;;;;6.44;80.08;102321.16;5044202;28;20090;-68
2022/05/01 05:11:15;;;;;;;23.42;11.73;;;;;;;6.57;80.58;102327.91;5063753;28;20036;-74
2022/05/01 05:13:40;;;;;;;22.52;12.73;;;;;;;6.60;80.62;102326.00;5047743;28;20048;-67
2022/05/01 05:16:12;;;;;;;19.13;11.98;;;;;;;6.62;80.03;102325.94;5064896;28;20048;-74
2022/05/01 05:18:39;;;;;;;21.85;12.98;;;;;;;6.65;80.17;102332.16;5068686;28;20456;-68
2022/05/01 05:21:05;;;;;;;19.23;13.18;;;;;;;6.67;80.73;102334.81;5058368;28;20098;-69
2022/05/01 05:23:31;;;;;;;22.23;12.73;;;;;;;6.71;80.54;102335.59;5062466;28;20037;-68
2022/05/01 05:25:56;;;;;;;19.38;12.90;;;;;;;6.72;80.83;102340.97;5070109;28;20039;-74
2022/05/01 05:28:21;;;;;;;20.20;13.10;;;;;;;6.74;81.18;102344.50;5068362;28;20389;-70
2022/05/01 05:30:48;;;;;;;20.90;12.95;;;;;;;6.75;81.58;102340.84;5068445;28;20376;-67
2022/05/01 05:33:15;;;;;;;21.40;13.65;;;;;;;6.75;81.71;102343.56;5059342;28;20024;-68
2022/05/01 05:35:41;;;;;;;24.23;14.82;;;;;;;6.79;81.62;102349.75;5059069;28;20063;-69
2022/05/01 05:38:06;;;;;;;24.35;13.90;;;;;;;6.76;81.97;102350.75;5068159;28;20040;-73
2022/05/01 05:40:32;;;;;;;23.63;13.00;;;;;;;6.82;81.15;102353.25;5068560;28;20078;-73
2022/05/01 05:42:57;;;;;;;29.10;14.13;;;;;;;6.88;81.46;102341.34;5067813;28;20032;-68
2022/05/01 05:45:22;;;;;;;24.75;14.05;;;;;;;6.92;81.72;102350.25;5068735;28;20032;-68
2022/05/01 05:47:48;;;;;;;28.25;15.50;;;;;;;6.97;81.64;102350.97;5066697;28;20043;-72
2022/05/01 05:50:13;;;;;;;27.05;15.73;;;;;;;7.04;81.26;102347.13;5066473;28;20048;-74
2022/05/01 05:52:39;;;;;;;24.35;14.85;;;;;;;7.14;81.47;102356.72;5068900;28;20134;-72
2022/05/01 05:55:05;;;;;;;25.05;15.93;;;;;;;7.25;80.22;102353.63;5067615;28;20042;-73
2022/05/01 05:57:30;;;;;;;26.60;16.40;;;;;;;7.31;80.49;102359.72;5068610;28;20119;-72
2022/05/01 05:59:55;;;;;;;26.77;15.57;;;;;;;7.35;80.14;102360.50;5054255;28;20029;-67
2022/05/01 06:02:21;;;;;;;29.25;15.68;;;;;;;7.43;80.48;102355.72;5062824;28;20016;-70
2022/05/01 06:04:46;;;;;;;29.20;16.38;;;;;;;7.53;79.98;102359.84;5060726;28;20036;-69
2022/05/01 06:07:11;;;;;;;30.23;16.48;;;;;;;7.55;81.04;102360.66;5067354;28;20038;-70
2022/05/01 06:09:37;;;;;;;27.98;16.65;;;;;;;7.55;81.16;102348.94;5064528;28;20099;-69
2022/05/01 06:12:02;;;;;;;30.52;17.60;;;;;;;7.52;80.78;102365.34;5065856;28;20077;-67
2022/05/01 06:14:28;;;;;;;34.50;16.67;;;;;;;7.53;81.44;102361.69;5058486;28;20079;-69
2022/05/01 06:16:53;;;;;;;31.40;17.63;;;;;;;7.55;80.83;102355.25;5055761;28;20040;-68
2022/05/01 06:19:18;;;;;;;28.75;16.15;;;;;;;7.61;80.70;102363.19;5059972;28;20165;-75
2022/05/01 06:21:44;;;;;;;28.85;17.05;;;;;;;7.70;80.70;102367.38;5061708;28;20115;-67
2022/05/01 06:24:09;;;;;;;27.48;16.80;;;;;;;7.83;80.14;102366.00;5068792;28;20078;-76
2022/05/01 06:26:34;;;;;;;29.83;17.27;;;;;;;7.93;81.09;102367.44;5053160;28;20020;-75
2022/05/01 06:29:01;;;;;;;30.75;16.70;;;;;;;8.01;80.50;102364.41;5067005;28;20356;-68
2022/05/01 06:31:27;;;;;;;28.95;16.77;;;;;;;8.14;79.74;102370.28;5071540;28;20032;-75
2022/05/01 06:33:54;;;;;;;28.80;16.42;;;;;;;8.26;79.04;102368.94;5068319;28;20058;-67
2022/05/01 06:36:19;;;;;;;23.75;15.55;;;;;;;8.34;79.09;102361.38;5068921;28;20020;-75
2022/05/01 06:38:45;;;;;;;32.72;17.15;;;;;;;8.47;80.09;102365.41;5064403;28;20036;-75
2022/05/01 06:41:11;;;;;;;30.98;17.30;;;;;;;8.63;79.02;102361.16;5066427;28;20037;-68
2022/05/01 06:43:37;;;;;;;25.83;16.08;;;;;;;8.90;78.10;102375.41;5060643;28;20385;-74
2022/05/01 06:46:02;;;;;;;25.25;16.08;;;;;;;9.13;77.91;102368.16;5069135;28;20407;-75
2022/05/01 06:48:28;;;;;;;27.15;16.35;;;;;;;9.25;77.44;102370.34;5067031;28;20028;-72
2022/05/01 06:50:53;;;;;;;25.90;15.48;;;;;;;9.34;78.33;102371.81;5066292;28;20028;-73
2022/05/01 06:53:19;;;;;;;27.80;16.00;;;;;;;9.51;76.93;102368.34;5048487;28;20052;-68
2022/05/01 06:55:44;;;;;;;28.45;16.05;;;;;;;9.57;76.22;102384.41;5046681;28;20029;-70
2022/05/01 06:58:10;;;;;;;25.20;14.80;;;;;;;9.49;76.00;102371.13;5065408;28;20072;-73
2022/05/01 07:00:36;;;;;;;26.67;15.27;;;;;;;9.43;75.72;102371.41;5071541;28;20399;-75
2022/05/01 07:03:02;;;;;;;31.38;16.02;;;;;;;9.41;76.23;102376.00;5060562;28;20039;-66
2022/05/01 07:05:27;;;;;;;26.77;16.10;;;;;;;9.46;76.79;102365.81;5054333;28;20032;-67
2022/05/01 07:07:54;;;;;;;24.30;15.15;;;;;;;9.54;76.21;102370.94;5056845;28;20037;-67
2022/05/01 07:10:21;;;;;;;26.10;15.23;;;;;;;9.62;74.94;102366.06;5058291;28;20115;-73
2022/05/01 07:12:47;;;;;;;23.95;15.00;;;;;;;9.75;75.78;102370.00;5062466;28;20511;-66
2022/05/01 07:15:12;;;;;;;30.27;16.70;;;;;;;9.75;75.46;102366.41;5060342;28;20044;-70
2022/05/01 07:17:38;;;;;;;29.42;16.13;;;;;;;9.78;75.03;102372.56;5062085;28;20025;-67
2022/05/01 07:20:04;;;;;;;29.38;16.38;;;;;;;9.84;74.32;102371.41;5069011;28;20055;-74
2022/05/01 07:22:29;;;;;;;28.63;16.33;;;;;;;9.85;75.04;102365.03;5062513;28;20805;-74
2022/05/01 07:24:55;;;;;;;25.98;15.45;;;;;;;9.88;74.49;102365.75;5066010;28;20111;-67
2022/05/01 07:27:21;;;;;;;26.17;15.52;;;;;;;10.02;75.86;102367.84;5053936;28;20108;-67
2022/05/01 07:29:46;;;;;;;22.58;14.80;;;;;;;10.23;74.20;102368.72;5071952;28;20361;-75
2022/05/01 07:32:12;;;;;;;25.02;15.45;;;;;;;10.34;73.06;102358.22;5061945;28;20115;-73
2022/05/01 07:34:37;;;;;;;24.98;15.02;;;;;;;10.41;72.47;102362.44;5066740;28;20029;-74
2022/05/01 07:37:04;;;;;;;23.80;14.77;;;;;;;10.51;73.08;102365.59;5064861;28;20056;-66
2022/05/01 07:39:30;;;;;;;24.35;14.93;;;;;;;10.60;72.83;102367.88;5071997;28;20024;-72
2022/05/01 07:41:56;;;;;;;23.98;13.68;;;;;;;10.63;72.79;102367.75;5064355;28;20025;-74
2022/05/01 07:44:21;;;;;;;22.67;14.43;;;;;;;10.65;72.39;102362.22;5070041;28;20047;-74
2022/05/01 07:46:47;;;;;;;21.60;13.82;;;;;;;10.79;71.41;102369.72;5064517;28;20103;-66
2022/05/01 07:49:13;;;;;;;24.05;15.63;;;;;;;10.88;72.52;102371.97;5064092;28;20361;-67
2022/05/01 07:51:40;;;;;;;26.88;15.93;;;;;;;10.92;69.93;102370.88;5061165;28;20423;-74
2022/05/01 07:54:06;;;;;;;20.33;14.32;;;;;;;11.03;70.69;102362.16;5072415;28;20043;-67
2022/05/01 07:56:33;;;;;;;21.15;13.40;;;;;;;11.23;70.56;102372.94;5070579;28;20028;-74
2022/05/01 07:58:59;;;;;;;23.48;14.55;;;;;;;11.44;68.62;102362.78;5063094;28;20063;-67
2022/05/01 08:01:24;;;;;;;21.20;12.20;;;;;;;12.03;69.50;102369.69;5069161;28;20059;-71
2022/05/01 08:06:33;;;;;;;20.10;13.18;;;;;;;13.14;66.78;102370.66;5055945;28;20387;-73
2022/05/01 08:08:59;;;;;;;23.50;13.77;;;;;;;13.86;64.23;102363.63;5071868;28;20039;-74
2022/05/01 08:11:25;;;;;;;20.55;12.75;;;;;;;14.07;61.61;102365.97;5067878;28;21816;-66
2022/05/01 08:13:50;;;;;;;15.60;11.20;;;;;;;14.44;61.91;102359.03;5060198;28;20017;-66
2022/05/01 08:16:20;;;;;;;19.80;11.45;;;;;;;14.57;58.29;102361.91;5068718;28;21321;-71
2022/05/01 08:21:44;;;;;;;15.90;10.75;;;;;;;14.52;56.16;102359.47;5053247;28;20048;-67
2022/05/01 08:24:10;;;;;;;17.42;11.20;;;;;;;14.41;57.78;102365.59;5071793;28;20503;-67
2022/05/01 08:26:36;;;;;;;16.20;11.07;;;;;;;14.72;58.39;102359.03;5066089;28;20033;-66
2022/05/01 08:29:01;;;;;;;12.88;9.05;;;;;;;14.91;55.03;102363.28;5068936;28;20099;-72
2022/05/01 08:31:27;;;;;;;15.85;9.38;;;;;;;14.57;53.81;102357.28;5066103;28;20113;-67
2022/05/01 08:33:54;;;;;;;20.38;10.27;;;;;;;14.29;55.49;102355.44;5080502;28;20119;-66
2022/05/01 08:36:19;;;;;;;14.32;9.50;;;;;;;14.62;57.21;102352.41;5058442;28;20161;-74
2022/05/01 08:38:45;;;;;;;15.15;9.52;;;;;;;15.30;54.70;102346.91;5071274;28;20036;-67
2022/05/01 08:41:11;;;;;;;14.23;8.27;;;;;;;15.24;53.18;102343.69;5066376;28;20032;-72
2022/05/01 08:43:36;;;;;;;12.30;7.95;;;;;;;15.03;50.57;102348.78;5071192;28;20036;-67
2022/05/01 08:46:36;;;;;;;10.45;6.20;;;;;;;14.64;52.13;102358.66;5069943;28;20033;-72
2022/05/01 08:49:06;;;;;;;9.60;6.32;;;;;;;14.51;51.18;102342.16;5062226;28;20121;-72
2022/05/01 08:51:39;;;;;;;10.57;7.30;;;;;;;14.49;50.85;102348.69;5056949;28;20024;-66
2022/05/01 08:54:07;;;;;;;11.90;6.75;;;;;;;14.88;52.19;102347.94;5069707;28;20256;-73
2022/05/01 08:56:34;;;;;;;9.02;6.53;;;;;;;14.85;48.50;102353.63;5070699;28;20115;-72
2022/05/01 08:59:01;;;;;;;12.10;7.10;;;;;;;14.93;54.31;102337.56;5060155;28;20035;-67
2022/05/01 09:01:30;;;;;;;8.40;5.70;;;;;;;15.48;47.02;102346.59;5064492;28;20041;-66
2022/05/01 09:03:55;;;;;;;9.30;5.80;;;;;;;15.78;48.76;102340.88;5075240;28;20534;-66
2022/05/01 09:06:21;;;;;;;9.77;6.65;;;;;;;16.21;49.55;102340.56;5053311;28;20025;-67
2022/05/01 09:08:47;;;;;;;7.22;5.22;;;;;;;16.70;46.37;102334.22;5065701;28;20035;-66
2022/05/01 09:13:56;;;;;;;6.22;4.80;;;;;;;16.42;44.25;102335.38;5068009;28;20048;-67
2022/05/01 09:16:22;;;;;;;8.65;4.03;;;;;;;16.12;41.85;102333.84;5073705;28;20627;-67
2022/05/01 09:18:47;;;;;;;7.90;4.85;;;;;;;16.22;46.32;102337.69;5066312;28;20048;-69
2022/05/01 09:21:13;;;;;;;6.40;5.03;;;;;;;16.46;42.72;102337.78;5058820;28;20060;-75
2022/05/01 09:23:46;;;;;;;7.97;5.13;;;;;;;16.86;44.78;102336.72;5047896;28;20028;-67
2022/05/01 09:26:13;;;;;;;10.77;6.28;;;;;;;16.63;39.12;102333.78;5065259;28;20162;-71
2022/05/01 09:28:59;;;;;;;7.38;5.10;;;;;;;16.39;43.90;102335.59;5070484;28;20040;-66
2022/05/01 09:31:46;;;;;;;9.63;5.40;;;;;;;16.80;45.92;102340.81;5063579;28;20056;-65
2022/05/01 09:34:26;;;;;;;9.68;5.72;;;;;;;16.99;43.34;102334.81;5065428;28;20036;-68
2022/05/01 09:36:52;;;;;;;6.93;5.38;;;;;;;17.17;39.77;102338.03;5062227;28;20039;-65
2022/05/01 09:39:23;;;;;;;8.27;5.35;;;;;;;17.55;38.94;102337.81;5070081;28;20421;-67
2022/05/01 09:41:50;;;;;;;10.43;5.85;;;;;;;17.86;39.49;102336.31;5068812;28;20135;-66
2022/05/01 09:44:17;;;;;;;9.20;5.40;;;;;;;18.09;41.82;102335.34;5064622;28;20028;-66
2022/05/01 09:46:44;;;;;;;8.85;6.05;;;;;;;18.50;41.05;102333.81;5067166;28;20032;-73
2022/05/01 09:49:15;;;;;;;7.85;5.50;;;;;;;18.71;38.63;102330.34;5066001;28;20036;-74
2022/05/01 09:51:43;;;;;;;8.43;5.65;;;;;;;18.79;40.67;102334.22;5068083;28;20139;-66
2022/05/01 09:54:16;;;;;;;7.70;5.05;;;;;;;19.20;39.69;102332.59;5070206;28;20164;-65
2022/05/01 09:56:51;;;;;;;6.53;5.70;;;;;;;19.03;37.14;102330.41;5049267;28;20040;-69
2022/05/01 09:59:20;;;;;;;6.53;5.13;;;;;;;18.87;36.01;102333.56;5064415;28;20123;-65
2022/05/01 10:02:04;;;;;;;8.07;6.30;;;;;;;18.51;39.81;102334.69;5053703;28;20024;-72
2022/05/01 10:04:32;;;;;;;6.15;5.18;;;;;;;18.42;38.60;102332.69;5065530;28;20090;-71
2022/05/01 10:06:59;;;;;;;6.85;5.50;;;;;;;18.41;38.65;102331.81;5069858;28;20028;-74
2022/05/01 10:09:26;;;;;;;7.40;5.47;;;;;;;18.40;36.97;102327.31;5066683;28;20379;-68
2022/05/01 10:11:54;;;;;;;6.65;5.63;;;;;;;17.81;36.08;102328.41;5067603;28;20399;-67
2022/05/01 10:14:20;;;;;;;7.15;5.40;;;;;;;17.73;38.42;102324.47;5061539;28;20053;-73
2022/05/01 10:16:46;;;;;;;9.20;6.45;;;;;;;17.79;39.70;102316.63;5063040;28;20120;-73
2022/05/01 10:19:18;;;;;;;10.65;6.32;;;;;;;18.19;37.91;102329.09;5065163;28;20547;-67
2022/05/01 10:21:49;;;;;;;9.60;6.50;;;;;;;18.47;42.09;102322.19;5062378;28;20032;-71
2022/05/01 10:24:16;;;;;;;9.55;5.88;;;;;;;18.75;38.10;102320.81;5069170;28;20046;-66
2022/05/01 10:26:51;;;;;;;8.02;6.32;;;;;;;18.68;36.23;102314.88;5061763;28;20028;-72
2022/05/01 10:29:29;;;;;;;7.85;5.65;;;;;;;18.70;36.54;102312.03;5060699;28;20025;-66
2022/05/01 10:32:22;;;;;;;8.50;5.72;;;;;;;19.15;37.10;102307.28;5057556;28;20033;-74
2022/05/01 10:35:07;;;;;;;10.52;5.72;;;;;;;18.94;37.03;102306.38;5051480;28;20040;-72
2022/05/01 10:38:09;;;;;;;8.23;5.57;;;;;;;18.64;39.87;102304.25;5066718;28;20036;-65
2022/05/01 10:40:49;;;;;;;8.48;6.38;;;;;;;18.04;36.89;102296.25;5065501;28;20587;-66
2022/05/01 10:43:33;;;;;;;7.28;5.97;;;;;;;18.16;36.29;102299.91;5062940;28;20461;-74
2022/05/01 10:46:00;;;;;;;9.00;5.63;;;;;;;18.54;38.43;102298.63;5069510;28;20369;-65
2022/05/01 10:48:36;;;;;;;6.90;5.88;;;;;;;18.10;34.85;102293.03;5053668;28;20047;-73
2022/05/01 10:51:39;;;;;;;7.80;6.40;;;;;;;17.71;39.93;102294.31;5062196;28;20098;-73
2022/05/01 10:54:10;;;;;;;11.43;5.00;;;;;;;17.94;39.28;102300.75;5064428;28;20032;-65
2022/05/01 10:56:37;;;;;;;9.88;6.30;;;;;;;17.86;35.93;102300.53;5063349;28;20337;-72
2022/05/01 10:59:31;;;;;;;8.98;5.72;;;;;;;17.64;39.24;102290.31;5049067;28;20109;-66
2022/05/01 11:02:16;;;;;;;12.82;6.00;;;;;;;17.62;38.18;102280.41;5062115;28;20082;-73
2022/05/01 11:04:42;;;;;;;8.68;6.22;;;;;;;17.39;36.94;102280.34;5050121;28;20056;-68
2022/05/01 11:07:13;;;;;;;8.63;6.22;;;;;;;17.41;40.38;102280.22;5063220;28;20075;-72
2022/05/01 11:09:41;;;;;;;8.77;6.38;;;;;;;17.39;37.27;102276.72;5069213;28;20388;-74
2022/05/01 11:12:08;;;;;;;8.80;5.70;;;;;;;17.33;37.62;102278.06;5068855;28;20033;-66
2022/05/01 11:14:52;;;;;;;9.77;5.85;;;;;;;17.66;40.38;102277.28;5069419;28;20105;-65
2022/05/01 11:17:28;;;;;;;7.45;5.43;;;;;;;17.89;39.77;102272.72;5063595;28;20041;-74
2022/05/01 11:20:02;;;;;;;7.75;5.40;;;;;;;17.95;38.53;102279.59;5063473;28;20037;-66
2022/05/01 11:22:28;;;;;;;8.93;5.40;;;;;;;17.95;37.73;102271.34;5071138;28;20032;-68
2022/05/01 11:24:53;;;;;;;8.45;5.45;;;;;;;17.91;37.36;102267.97;5065094;28;20028;-73
2022/05/01 11:27:21;;;;;;;8.68;6.00;;;;;;;17.94;38.41;102267.72;5058490;28;20045;-66
2022/05/01 11:30:08;;;;;;;8.90;5.13;;;;;;;18.19;41.01;102258.34;5051809;28;20025;-74
2022/05/01 11:32:51;;;;;;;7.38;5.38;;;;;;;18.20;38.65;102256.47;5065290;28;20037;-67
2022/05/01 11:35:17;;;;;;;10.30;6.15;;;;;;;18.12;38.77;102256.22;5053110;28;20029;-66
2022/05/01 11:37:52;;;;;;;9.40;6.00;;;;;;;17.92;37.92;102255.09;5070929;28;20510;-67
2022/05/01 11:40:27;;;;;;;7.03;5.32;;;;;;;17.89;38.97;102249.81;5061780;28;20035;-66
2022/05/01 11:43:13;;;;;;;8.85;5.68;;;;;;;17.77;40.27;102244.31;5069547;28;20035;-75
2022/05/01 11:45:38;;;;;;;9.68;5.80;;;;;;;17.93;39.70;102243.94;5072009;28;20039;-70
2022/05/01 11:48:11;;;;;;;8.05;5.65;;;;;;;18.10;40.50;102243.44;5072634;28;20032;-74
2022/05/01 11:50:38;;;;;;;;;;;;;;;18.28;41.51;102246.56;5050630;28;20036;-66
2022/05/01 11:53:04;;;;;;;5.97;5.22;;;;;;;18.16;40.23;102232.91;5067328;28;19916;-66